sensor_id;sensor_type;location;lat;lon;timestamp;P1;durP1;ratioP1;P2;durP2;ratioP2
1545;SDS011;766;51.502;9.752;2023-09-18T00:02:18;8.05;;;4.28;;
1545;SDS011;766;51.502;9.752;2023-09-18T00:04:47;7.72;;;4.03;;
1545;SDS011;766;51.502;9.752;2023-09-18T00:07:16;4.97;;;3.58;;
1545;SDS011;766;51.502;9.752;2023-09-18T00:09:45;6.97;;;3.97;;
1545;SDS011;766;51.502;9.752;2023-09-18T00:12:15;4.80;;;3.70;;
1545;SDS011;766;51.502;9.752;2023-09-18T00:14:47;7.82;;;4.20;;
1545;SDS011;766;51.502;9.752;2023-09-18T00:17:16;6.22;;;3.60;;
1545;SDS011;766;51.502;9.752;2023-09-18T00:19:45;9.25;;;4.00;;
1545;SDS011;766;51.502;9.752;2023-09-18T00:22:14;9.02;;;3.88;;
1545;SDS011;766;51.502;9.752;2023-09-18T00:24:44;7.65;;;4.00;;
1545;SDS011;766;51.502;9.752;2023-09-18T00:27:13;6.03;;;3.92;;
1545;SDS011;766;51.502;9.752;2023-09-18T00:29:42;9.40;;;4.15;;
1545;SDS011;766;51.502;9.752;2023-09-18T00:32:11;6.22;;;3.78;;
1545;SDS011;766;51.502;9.752;2023-09-18T00:34:40;6.18;;;3.95;;
1545;SDS011;766;51.502;9.752;2023-09-18T00:37:08;4.80;;;3.72;;
1545;SDS011;766;51.502;9.752;2023-09-18T00:39:38;6.47;;;4.05;;
1545;SDS011;766;51.502;9.752;2023-09-18T00:42:08;6.43;;;3.72;;
1545;SDS011;766;51.502;9.752;2023-09-18T00:44:40;7.90;;;3.90;;
1545;SDS011;766;51.502;9.752;2023-09-18T00:47:08;6.28;;;4.15;;
1545;SDS011;766;51.502;9.752;2023-09-18T00:49:39;6.65;;;4.22;;
1545;SDS011;766;51.502;9.752;2023-09-18T00:52:08;6.72;;;4.00;;
1545;SDS011;766;51.502;9.752;2023-09-18T00:54:37;6.22;;;4.25;;
1545;SDS011;766;51.502;9.752;2023-09-18T00:57:08;6.78;;;4.40;;
1545;SDS011;766;51.502;9.752;2023-09-18T00:59:37;5.35;;;3.90;;
1545;SDS011;766;51.502;9.752;2023-09-18T01:02:06;5.22;;;4.50;;
1545;SDS011;766;51.502;9.752;2023-09-18T01:04:35;6.35;;;4.43;;
1545;SDS011;766;51.502;9.752;2023-09-18T01:07:03;8.25;;;4.57;;
1545;SDS011;766;51.502;9.752;2023-09-18T01:09:32;8.07;;;4.45;;
1545;SDS011;766;51.502;9.752;2023-09-18T01:12:01;6.00;;;4.50;;
1545;SDS011;766;51.502;9.752;2023-09-18T01:14:36;6.70;;;4.47;;
1545;SDS011;766;51.502;9.752;2023-09-18T01:17:05;5.15;;;4.53;;
1545;SDS011;766;51.502;9.752;2023-09-18T01:19:35;7.28;;;4.18;;
1545;SDS011;766;51.502;9.752;2023-09-18T01:22:04;4.88;;;4.38;;
1545;SDS011;766;51.502;9.752;2023-09-18T01:24:34;4.95;;;3.95;;
1545;SDS011;766;51.502;9.752;2023-09-18T01:27:03;5.97;;;4.15;;
1545;SDS011;766;51.502;9.752;2023-09-18T01:29:32;5.97;;;4.30;;
1545;SDS011;766;51.502;9.752;2023-09-18T01:32:00;6.03;;;4.35;;
1545;SDS011;766;51.502;9.752;2023-09-18T01:34:30;6.20;;;4.55;;
1545;SDS011;766;51.502;9.752;2023-09-18T01:36:59;6.57;;;4.78;;
1545;SDS011;766;51.502;9.752;2023-09-18T01:39:29;4.85;;;3.72;;
1545;SDS011;766;51.502;9.752;2023-09-18T01:41:59;6.38;;;4.85;;
1545;SDS011;766;51.502;9.752;2023-09-18T01:44:29;5.20;;;4.50;;
1545;SDS011;766;51.502;9.752;2023-09-18T01:46:58;6.57;;;4.57;;
1545;SDS011;766;51.502;9.752;2023-09-18T01:49:27;5.72;;;4.40;;
1545;SDS011;766;51.502;9.752;2023-09-18T01:51:56;6.35;;;4.63;;
1545;SDS011;766;51.502;9.752;2023-09-18T01:54:25;4.03;;;3.67;;
1545;SDS011;766;51.502;9.752;2023-09-18T01:56:53;7.72;;;4.82;;
1545;SDS011;766;51.502;9.752;2023-09-18T01:59:23;6.28;;;4.25;;
1545;SDS011;766;51.502;9.752;2023-09-18T02:02:08;5.13;;;4.32;;
1545;SDS011;766;51.502;9.752;2023-09-18T02:04:43;6.90;;;4.82;;
1545;SDS011;766;51.502;9.752;2023-09-18T02:07:32;5.78;;;4.50;;
1545;SDS011;766;51.502;9.752;2023-09-18T02:10:00;4.38;;;3.97;;
1545;SDS011;766;51.502;9.752;2023-09-18T02:12:35;4.85;;;4.45;;
1545;SDS011;766;51.502;9.752;2023-09-18T02:15:06;5.45;;;4.55;;
1545;SDS011;766;51.502;9.752;2023-09-18T02:17:36;6.43;;;4.47;;
1545;SDS011;766;51.502;9.752;2023-09-18T02:20:06;4.95;;;4.22;;
1545;SDS011;766;51.502;9.752;2023-09-18T02:22:38;6.40;;;4.78;;
1545;SDS011;766;51.502;9.752;2023-09-18T02:25:07;6.13;;;5.03;;
1545;SDS011;766;51.502;9.752;2023-09-18T02:27:36;5.03;;;4.53;;
1545;SDS011;766;51.502;9.752;2023-09-18T02:30:06;7.60;;;4.82;;
1545;SDS011;766;51.502;9.752;2023-09-18T02:32:36;4.45;;;4.05;;
1545;SDS011;766;51.502;9.752;2023-09-18T02:35:05;5.10;;;4.60;;
1545;SDS011;766;51.502;9.752;2023-09-18T02:37:35;4.93;;;4.50;;
1545;SDS011;766;51.502;9.752;2023-09-18T02:40:03;5.30;;;4.78;;
1545;SDS011;766;51.502;9.752;2023-09-18T02:42:34;5.10;;;4.60;;
1545;SDS011;766;51.502;9.752;2023-09-18T02:45:02;5.70;;;4.18;;
1545;SDS011;766;51.502;9.752;2023-09-18T02:47:32;7.28;;;4.65;;
1545;SDS011;766;51.502;9.752;2023-09-18T02:50:01;5.53;;;4.53;;
1545;SDS011;766;51.502;9.752;2023-09-18T02:52:30;5.18;;;4.47;;
1545;SDS011;766;51.502;9.752;2023-09-18T02:54:59;5.60;;;4.28;;
1545;SDS011;766;51.502;9.752;2023-09-18T02:57:27;6.35;;;4.43;;
1545;SDS011;766;51.502;9.752;2023-09-18T02:59:56;4.65;;;4.20;;
1545;SDS011;766;51.502;9.752;2023-09-18T03:02:25;5.68;;;4.30;;
1545;SDS011;766;51.502;9.752;2023-09-18T03:04:55;4.60;;;4.20;;
1545;SDS011;766;51.502;9.752;2023-09-18T03:07:23;5.68;;;4.40;;
1545;SDS011;766;51.502;9.752;2023-09-18T03:09:58;4.13;;;3.75;;
1545;SDS011;766;51.502;9.752;2023-09-18T03:12:27;5.28;;;4.25;;
1545;SDS011;766;51.502;9.752;2023-09-18T03:14:55;7.40;;;4.53;;
1545;SDS011;766;51.502;9.752;2023-09-18T03:17:24;5.20;;;4.57;;
1545;SDS011;766;51.502;9.752;2023-09-18T03:19:54;5.65;;;4.90;;
1545;SDS011;766;51.502;9.752;2023-09-18T03:22:23;4.65;;;4.10;;
1545;SDS011;766;51.502;9.752;2023-09-18T03:24:51;6.90;;;4.50;;
1545;SDS011;766;51.502;9.752;2023-09-18T03:27:20;6.07;;;4.57;;
1545;SDS011;766;51.502;9.752;2023-09-18T03:29:55;5.05;;;4.55;;
1545;SDS011;766;51.502;9.752;2023-09-18T03:32:23;5.82;;;4.28;;
1545;SDS011;766;51.502;9.752;2023-09-18T03:34:52;5.00;;;4.50;;
1545;SDS011;766;51.502;9.752;2023-09-18T03:37:22;5.65;;;5.05;;
1545;SDS011;766;51.502;9.752;2023-09-18T03:39:50;6.25;;;4.57;;
1545;SDS011;766;51.502;9.752;2023-09-18T03:42:19;5.15;;;4.65;;
1545;SDS011;766;51.502;9.752;2023-09-18T03:44:47;4.82;;;4.43;;
1545;SDS011;766;51.502;9.752;2023-09-18T03:47:16;5.45;;;4.85;;
1545;SDS011;766;51.502;9.752;2023-09-18T03:49:44;5.07;;;4.60;;
1545;SDS011;766;51.502;9.752;2023-09-18T03:52:13;5.40;;;4.90;;
1545;SDS011;766;51.502;9.752;2023-09-18T03:54:44;4.47;;;4.07;;
1545;SDS011;766;51.502;9.752;2023-09-18T03:57:12;6.15;;;4.22;;
1545;SDS011;766;51.502;9.752;2023-09-18T03:59:44;6.45;;;4.43;;
1545;SDS011;766;51.502;9.752;2023-09-18T04:02:13;6.75;;;4.68;;
1545;SDS011;766;51.502;9.752;2023-09-18T04:04:41;4.75;;;4.28;;
1545;SDS011;766;51.502;9.752;2023-09-18T04:07:10;4.90;;;4.40;;
1545;SDS011;766;51.502;9.752;2023-09-18T04:09:43;6.60;;;4.20;;
1545;SDS011;766;51.502;9.752;2023-09-18T04:12:12;5.10;;;4.60;;
1545;SDS011;766;51.502;9.752;2023-09-18T04:14:40;10.48;;;4.53;;
1545;SDS011;766;51.502;9.752;2023-09-18T04:17:09;4.88;;;4.43;;
1545;SDS011;766;51.502;9.752;2023-09-18T04:19:38;4.85;;;4.35;;
1545;SDS011;766;51.502;9.752;2023-09-18T04:22:06;7.97;;;4.50;;
1545;SDS011;766;51.502;9.752;2023-09-18T04:24:35;6.05;;;4.35;;
1545;SDS011;766;51.502;9.752;2023-09-18T04:27:04;4.80;;;4.35;;
1545;SDS011;766;51.502;9.752;2023-09-18T04:29:33;4.55;;;4.15;;
1545;SDS011;766;51.502;9.752;2023-09-18T04:32:03;4.50;;;4.10;;
1545;SDS011;766;51.502;9.752;2023-09-18T04:34:32;5.88;;;4.30;;
1545;SDS011;766;51.502;9.752;2023-09-18T04:37:01;4.57;;;4.18;;
1545;SDS011;766;51.502;9.752;2023-09-18T04:39:30;4.95;;;4.50;;
1545;SDS011;766;51.502;9.752;2023-09-18T04:42:01;5.28;;;4.35;;
1545;SDS011;766;51.502;9.752;2023-09-18T04:44:33;7.50;;;4.20;;
1545;SDS011;766;51.502;9.752;2023-09-18T04:47:01;4.25;;;3.88;;
1545;SDS011;766;51.502;9.752;2023-09-18T04:49:30;4.93;;;3.67;;
1545;SDS011;766;51.502;9.752;2023-09-18T04:51:59;4.63;;;4.20;;
1545;SDS011;766;51.502;9.752;2023-09-18T04:54:28;4.88;;;4.45;;
1545;SDS011;766;51.502;9.752;2023-09-18T04:56:56;5.82;;;3.90;;
1545;SDS011;766;51.502;9.752;2023-09-18T04:59:25;7.78;;;3.83;;
1545;SDS011;766;51.502;9.752;2023-09-18T05:01:55;3.88;;;3.58;;
1545;SDS011;766;51.502;9.752;2023-09-18T05:04:23;3.55;;;3.25;;
1545;SDS011;766;51.502;9.752;2023-09-18T05:06:52;5.25;;;3.90;;
1545;SDS011;766;51.502;9.752;2023-09-18T05:09:20;7.15;;;3.60;;
1545;SDS011;766;51.502;9.752;2023-09-18T05:11:49;4.45;;;4.05;;
1545;SDS011;766;51.502;9.752;2023-09-18T05:14:19;5.82;;;3.95;;
1545;SDS011;766;51.502;9.752;2023-09-18T05:16:48;5.20;;;3.95;;
1545;SDS011;766;51.502;9.752;2023-09-18T05:19:18;4.95;;;3.92;;
1545;SDS011;766;51.502;9.752;2023-09-18T05:21:46;4.53;;;3.90;;
1545;SDS011;766;51.502;9.752;2023-09-18T05:24:18;6.70;;;3.97;;
1545;SDS011;766;51.502;9.752;2023-09-18T05:26:53;4.18;;;3.70;;
1545;SDS011;766;51.502;9.752;2023-09-18T05:29:21;4.50;;;3.85;;
1545;SDS011;766;51.502;9.752;2023-09-18T05:31:50;4.82;;;3.25;;
1545;SDS011;766;51.502;9.752;2023-09-18T05:34:20;4.22;;;3.75;;
1545;SDS011;766;51.502;9.752;2023-09-18T05:36:49;4.72;;;3.70;;
1545;SDS011;766;51.502;9.752;2023-09-18T05:39:18;5.82;;;3.75;;
1545;SDS011;766;51.502;9.752;2023-09-18T05:41:46;5.50;;;3.25;;
1545;SDS011;766;51.502;9.752;2023-09-18T05:44:15;5.78;;;3.42;;
1545;SDS011;766;51.502;9.752;2023-09-18T05:46:43;5.90;;;3.55;;
1545;SDS011;766;51.502;9.752;2023-09-18T05:49:12;4.70;;;4.00;;
1545;SDS011;766;51.502;9.752;2023-09-18T05:51:42;4.43;;;3.72;;
1545;SDS011;766;51.502;9.752;2023-09-18T05:54:11;7.97;;;3.70;;
1545;SDS011;766;51.502;9.752;2023-09-18T05:56:39;5.93;;;4.20;;
1545;SDS011;766;51.502;9.752;2023-09-18T05:59:08;7.47;;;3.53;;
1545;SDS011;766;51.502;9.752;2023-09-18T06:01:36;4.57;;;3.65;;
1545;SDS011;766;51.502;9.752;2023-09-18T06:04:05;4.68;;;3.55;;
1545;SDS011;766;51.502;9.752;2023-09-18T06:06:34;4.55;;;4.10;;
1545;SDS011;766;51.502;9.752;2023-09-18T06:09:04;5.10;;;4.07;;
1545;SDS011;766;51.502;9.752;2023-09-18T06:11:32;8.65;;;3.67;;
1545;SDS011;766;51.502;9.752;2023-09-18T06:14:01;5.80;;;3.60;;
1545;SDS011;766;51.502;9.752;2023-09-18T06:16:30;6.22;;;3.42;;
1545;SDS011;766;51.502;9.752;2023-09-18T06:18:58;9.07;;;4.07;;
1545;SDS011;766;51.502;9.752;2023-09-18T06:21:27;8.80;;;3.83;;
1545;SDS011;766;51.502;9.752;2023-09-18T06:23:55;5.78;;;3.75;;
1545;SDS011;766;51.502;9.752;2023-09-18T06:26:25;5.72;;;3.78;;
1545;SDS011;766;51.502;9.752;2023-09-18T06:28:54;5.82;;;3.60;;
1545;SDS011;766;51.502;9.752;2023-09-18T06:31:23;8.18;;;4.07;;
1545;SDS011;766;51.502;9.752;2023-09-18T06:33:52;8.02;;;4.25;;
1545;SDS011;766;51.502;9.752;2023-09-18T06:36:21;7.40;;;3.60;;
1545;SDS011;766;51.502;9.752;2023-09-18T06:38:49;9.23;;;4.45;;
1545;SDS011;766;51.502;9.752;2023-09-18T06:41:18;5.32;;;3.55;;
1545;SDS011;766;51.502;9.752;2023-09-18T06:43:48;5.97;;;3.92;;
1545;SDS011;766;51.502;9.752;2023-09-18T06:46:17;5.68;;;3.58;;
1545;SDS011;766;51.502;9.752;2023-09-18T06:48:49;8.00;;;3.78;;
1545;SDS011;766;51.502;9.752;2023-09-18T06:51:18;9.60;;;3.75;;
1545;SDS011;766;51.502;9.752;2023-09-18T06:54:06;6.82;;;3.40;;
1545;SDS011;766;51.502;9.752;2023-09-18T06:56:34;8.32;;;3.63;;
1545;SDS011;766;51.502;9.752;2023-09-18T06:59:04;9.15;;;3.83;;
1545;SDS011;766;51.502;9.752;2023-09-18T07:01:32;6.38;;;3.50;;
1545;SDS011;766;51.502;9.752;2023-09-18T07:04:01;6.70;;;3.40;;
1545;SDS011;766;51.502;9.752;2023-09-18T07:06:31;12.07;;;3.60;;
1545;SDS011;766;51.502;9.752;2023-09-18T07:08:59;8.35;;;3.97;;
1545;SDS011;766;51.502;9.752;2023-09-18T07:11:30;9.93;;;3.63;;
1545;SDS011;766;51.502;9.752;2023-09-18T07:13:58;9.38;;;4.00;;
1545;SDS011;766;51.502;9.752;2023-09-18T07:16:34;12.93;;;3.75;;
1545;SDS011;766;51.502;9.752;2023-09-18T07:19:03;7.70;;;3.50;;
1545;SDS011;766;51.502;9.752;2023-09-18T07:21:31;5.38;;;3.20;;
1545;SDS011;766;51.502;9.752;2023-09-18T07:24:01;7.00;;;3.72;;
1545;SDS011;766;51.502;9.752;2023-09-18T07:26:30;16.88;;;3.53;;
1545;SDS011;766;51.502;9.752;2023-09-18T07:28:58;6.93;;;3.30;;
1545;SDS011;766;51.502;9.752;2023-09-18T07:31:28;11.45;;;3.35;;
1545;SDS011;766;51.502;9.752;2023-09-18T07:33:57;8.48;;;3.63;;
1545;SDS011;766;51.502;9.752;2023-09-18T07:36:26;8.00;;;2.90;;
1545;SDS011;766;51.502;9.752;2023-09-18T07:38:54;13.10;;;3.70;;
1545;SDS011;766;51.502;9.752;2023-09-18T07:41:22;11.45;;;3.28;;
1545;SDS011;766;51.502;9.752;2023-09-18T07:43:51;9.40;;;3.50;;
1545;SDS011;766;51.502;9.752;2023-09-18T07:46:19;7.35;;;3.40;;
1545;SDS011;766;51.502;9.752;2023-09-18T07:48:48;8.93;;;3.03;;
1545;SDS011;766;51.502;9.752;2023-09-18T07:51:18;8.98;;;3.35;;
1545;SDS011;766;51.502;9.752;2023-09-18T07:53:46;14.75;;;3.90;;
1545;SDS011;766;51.502;9.752;2023-09-18T07:56:14;11.15;;;3.28;;
1545;SDS011;766;51.502;9.752;2023-09-18T07:58:43;15.00;;;4.35;;
1545;SDS011;766;51.502;9.752;2023-09-18T08:01:13;8.18;;;2.95;;
1545;SDS011;766;51.502;9.752;2023-09-18T08:03:43;9.32;;;3.25;;
1545;SDS011;766;51.502;9.752;2023-09-18T08:06:11;15.45;;;3.38;;
1545;SDS011;766;51.502;9.752;2023-09-18T08:08:43;11.10;;;3.17;;
1545;SDS011;766;51.502;9.752;2023-09-18T08:11:11;9.60;;;3.13;;
1545;SDS011;766;51.502;9.752;2023-09-18T08:13:40;5.20;;;2.50;;
1545;SDS011;766;51.502;9.752;2023-09-18T08:16:11;15.75;;;3.92;;
1545;SDS011;766;51.502;9.752;2023-09-18T08:18:40;11.02;;;3.25;;
1545;SDS011;766;51.502;9.752;2023-09-18T08:21:08;7.13;;;3.10;;
1545;SDS011;766;51.502;9.752;2023-09-18T08:23:37;10.65;;;3.53;;
1545;SDS011;766;51.502;9.752;2023-09-18T08:26:07;7.15;;;3.20;;
1545;SDS011;766;51.502;9.752;2023-09-18T08:28:35;10.48;;;3.13;;
1545;SDS011;766;51.502;9.752;2023-09-18T08:31:09;13.25;;;3.40;;
1545;SDS011;766;51.502;9.752;2023-09-18T08:33:38;10.98;;;2.95;;
1545;SDS011;766;51.502;9.752;2023-09-18T08:36:06;7.43;;;2.90;;
1545;SDS011;766;51.502;9.752;2023-09-18T08:38:34;13.02;;;3.42;;
1545;SDS011;766;51.502;9.752;2023-09-18T08:41:03;9.05;;;3.00;;
1545;SDS011;766;51.502;9.752;2023-09-18T08:43:33;12.07;;;3.05;;
1545;SDS011;766;51.502;9.752;2023-09-18T08:46:01;10.10;;;3.38;;
1545;SDS011;766;51.502;9.752;2023-09-18T08:48:30;8.77;;;3.10;;
1545;SDS011;766;51.502;9.752;2023-09-18T08:51:03;9.40;;;2.75;;
1545;SDS011;766;51.502;9.752;2023-09-18T08:53:33;6.60;;;3.25;;
1545;SDS011;766;51.502;9.752;2023-09-18T08:56:02;8.75;;;3.20;;
1545;SDS011;766;51.502;9.752;2023-09-18T08:58:33;17.42;;;3.58;;
1545;SDS011;766;51.502;9.752;2023-09-18T09:01:06;8.02;;;3.90;;
1545;SDS011;766;51.502;9.752;2023-09-18T09:03:36;9.70;;;3.05;;
1545;SDS011;766;51.502;9.752;2023-09-18T09:06:05;9.60;;;3.00;;
1545;SDS011;766;51.502;9.752;2023-09-18T09:08:35;9.85;;;3.47;;
1545;SDS011;766;51.502;9.752;2023-09-18T09:11:04;10.88;;;2.97;;
1545;SDS011;766;51.502;9.752;2023-09-18T09:13:34;9.18;;;2.70;;
1545;SDS011;766;51.502;9.752;2023-09-18T09:16:12;9.88;;;3.60;;
1545;SDS011;766;51.502;9.752;2023-09-18T09:18:48;9.40;;;3.38;;
1545;SDS011;766;51.502;9.752;2023-09-18T09:21:18;11.82;;;2.83;;
1545;SDS011;766;51.502;9.752;2023-09-18T09:23:47;6.15;;;2.60;;
1545;SDS011;766;51.502;9.752;2023-09-18T09:26:19;9.55;;;2.70;;
1545;SDS011;766;51.502;9.752;2023-09-18T09:28:49;9.02;;;2.90;;
1545;SDS011;766;51.502;9.752;2023-09-18T09:31:24;6.15;;;2.53;;
1545;SDS011;766;51.502;9.752;2023-09-18T09:33:54;9.63;;;2.88;;
1545;SDS011;766;51.502;9.752;2023-09-18T09:36:24;10.80;;;2.58;;
1545;SDS011;766;51.502;9.752;2023-09-18T09:38:54;8.05;;;2.70;;
1545;SDS011;766;51.502;9.752;2023-09-18T09:41:25;8.73;;;2.78;;
1545;SDS011;766;51.502;9.752;2023-09-18T09:43:56;17.20;;;2.40;;
1545;SDS011;766;51.502;9.752;2023-09-18T09:46:25;9.75;;;2.50;;
1545;SDS011;766;51.502;9.752;2023-09-18T09:48:59;10.90;;;2.67;;
1545;SDS011;766;51.502;9.752;2023-09-18T09:51:28;7.03;;;2.25;;
1545;SDS011;766;51.502;9.752;2023-09-18T09:53:57;8.52;;;2.45;;
1545;SDS011;766;51.502;9.752;2023-09-18T09:56:40;13.38;;;3.15;;
1545;SDS011;766;51.502;9.752;2023-09-18T09:59:11;7.25;;;2.38;;
1545;SDS011;766;51.502;9.752;2023-09-18T10:01:41;7.82;;;2.92;;
1545;SDS011;766;51.502;9.752;2023-09-18T10:04:12;9.35;;;2.90;;
1545;SDS011;766;51.502;9.752;2023-09-18T10:06:47;11.10;;;2.95;;
1545;SDS011;766;51.502;9.752;2023-09-18T10:09:20;6.57;;;2.70;;
1545;SDS011;766;51.502;9.752;2023-09-18T10:11:51;8.35;;;2.50;;
1545;SDS011;766;51.502;9.752;2023-09-18T10:14:26;8.25;;;2.60;;
1545;SDS011;766;51.502;9.752;2023-09-18T10:17:15;8.18;;;2.28;;
1545;SDS011;766;51.502;9.752;2023-09-18T10:19:45;7.53;;;2.47;;
1545;SDS011;766;51.502;9.752;2023-09-18T10:22:23;5.97;;;2.42;;
1545;SDS011;766;51.502;9.752;2023-09-18T10:24:59;11.07;;;2.85;;
1545;SDS011;766;51.502;9.752;2023-09-18T10:27:35;7.35;;;2.45;;
1545;SDS011;766;51.502;9.752;2023-09-18T10:30:11;7.30;;;2.45;;
1545;SDS011;766;51.502;9.752;2023-09-18T10:32:40;10.35;;;3.33;;
1545;SDS011;766;51.502;9.752;2023-09-18T10:35:10;6.43;;;2.00;;
1545;SDS011;766;51.502;9.752;2023-09-18T10:37:39;10.40;;;2.85;;
1545;SDS011;766;51.502;9.752;2023-09-18T10:40:10;8.07;;;2.80;;
1545;SDS011;766;51.502;9.752;2023-09-18T10:42:39;7.82;;;2.65;;
1545;SDS011;766;51.502;9.752;2023-09-18T10:45:09;7.95;;;2.50;;
1545;SDS011;766;51.502;9.752;2023-09-18T10:47:42;16.65;;;2.78;;
1545;SDS011;766;51.502;9.752;2023-09-18T10:50:22;7.97;;;2.40;;
1545;SDS011;766;51.502;9.752;2023-09-18T10:52:51;11.13;;;2.58;;
1545;SDS011;766;51.502;9.752;2023-09-18T10:55:20;8.93;;;3.25;;
1545;SDS011;766;51.502;9.752;2023-09-18T10:57:50;5.45;;;2.58;;
1545;SDS011;766;51.502;9.752;2023-09-18T11:00:21;6.20;;;2.53;;
1545;SDS011;766;51.502;9.752;2023-09-18T11:02:52;11.32;;;2.85;;
1545;SDS011;766;51.502;9.752;2023-09-18T11:05:28;7.13;;;2.42;;
1545;SDS011;766;51.502;9.752;2023-09-18T11:10:55;8.52;;;2.95;;
1545;SDS011;766;51.502;9.752;2023-09-18T11:13:28;6.07;;;2.58;;
1545;SDS011;766;51.502;9.752;2023-09-18T11:16:03;9.80;;;2.63;;
1545;SDS011;766;51.502;9.752;2023-09-18T11:18:41;6.97;;;2.38;;
1545;SDS011;766;51.502;9.752;2023-09-18T11:21:10;7.70;;;2.50;;
1545;SDS011;766;51.502;9.752;2023-09-18T11:23:39;6.20;;;2.13;;
1545;SDS011;766;51.502;9.752;2023-09-18T11:26:09;6.05;;;2.55;;
1545;SDS011;766;51.502;9.752;2023-09-18T11:28:38;9.73;;;2.63;;
1545;SDS011;766;51.502;9.752;2023-09-18T11:31:10;7.47;;;2.33;;
1545;SDS011;766;51.502;9.752;2023-09-18T11:33:39;10.90;;;2.72;;
1545;SDS011;766;51.502;9.752;2023-09-18T11:36:11;7.18;;;2.58;;
1545;SDS011;766;51.502;9.752;2023-09-18T11:38:53;4.68;;;2.25;;
1545;SDS011;766;51.502;9.752;2023-09-18T11:41:25;5.68;;;2.40;;
1545;SDS011;766;51.502;9.752;2023-09-18T11:46:57;11.77;;;2.47;;
1545;SDS011;766;51.502;9.752;2023-09-18T11:49:27;7.38;;;2.28;;
1545;SDS011;766;51.502;9.752;2023-09-18T11:51:58;7.35;;;2.28;;
1545;SDS011;766;51.502;9.752;2023-09-18T11:54:27;8.45;;;2.55;;
1545;SDS011;766;51.502;9.752;2023-09-18T11:56:56;6.65;;;2.25;;
1545;SDS011;766;51.502;9.752;2023-09-18T11:59:34;2.72;;;1.77;;
1545;SDS011;766;51.502;9.752;2023-09-18T12:02:12;5.28;;;2.00;;
1545;SDS011;766;51.502;9.752;2023-09-18T12:04:47;6.30;;;2.33;;
1545;SDS011;766;51.502;9.752;2023-09-18T12:07:15;6.57;;;2.05;;
1545;SDS011;766;51.502;9.752;2023-09-18T12:09:45;7.15;;;2.08;;
1545;SDS011;766;51.502;9.752;2023-09-18T12:12:13;3.20;;;1.75;;
1545;SDS011;766;51.502;9.752;2023-09-18T12:14:44;8.30;;;2.13;;
1545;SDS011;766;51.502;9.752;2023-09-18T12:17:15;6.20;;;2.50;;
1545;SDS011;766;51.502;9.752;2023-09-18T12:19:50;6.07;;;2.08;;
1545;SDS011;766;51.502;9.752;2023-09-18T12:22:23;8.07;;;2.40;;
1545;SDS011;766;51.502;9.752;2023-09-18T12:24:52;7.45;;;2.22;;
1545;SDS011;766;51.502;9.752;2023-09-18T12:27:21;8.10;;;2.50;;
1545;SDS011;766;51.502;9.752;2023-09-18T12:29:53;6.05;;;2.28;;
1545;SDS011;766;51.502;9.752;2023-09-18T12:32:24;6.30;;;2.45;;
1545;SDS011;766;51.502;9.752;2023-09-18T12:34:52;5.50;;;1.70;;
1545;SDS011;766;51.502;9.752;2023-09-18T12:37:21;6.25;;;2.22;;
1545;SDS011;766;51.502;9.752;2023-09-18T12:39:50;9.05;;;1.95;;
1545;SDS011;766;51.502;9.752;2023-09-18T12:42:19;3.40;;;1.80;;
1545;SDS011;766;51.502;9.752;2023-09-18T12:44:47;4.22;;;1.70;;
1545;SDS011;766;51.502;9.752;2023-09-18T12:47:18;4.65;;;1.95;;
1545;SDS011;766;51.502;9.752;2023-09-18T12:49:48;4.75;;;1.90;;
1545;SDS011;766;51.502;9.752;2023-09-18T12:52:21;2.50;;;1.52;;
1545;SDS011;766;51.502;9.752;2023-09-18T12:54:50;5.13;;;1.90;;
1545;SDS011;766;51.502;9.752;2023-09-18T12:57:20;4.95;;;1.77;;
1545;SDS011;766;51.502;9.752;2023-09-18T12:59:49;6.43;;;1.80;;
1545;SDS011;766;51.502;9.752;2023-09-18T13:02:19;7.05;;;1.80;;
1545;SDS011;766;51.502;9.752;2023-09-18T13:04:52;8.30;;;2.00;;
1545;SDS011;766;51.502;9.752;2023-09-18T13:07:22;4.85;;;2.20;;
1545;SDS011;766;51.502;9.752;2023-09-18T13:10:16;4.03;;;1.45;;
1545;SDS011;766;51.502;9.752;2023-09-18T13:12:53;6.68;;;2.40;;
1545;SDS011;766;51.502;9.752;2023-09-18T13:15:25;6.90;;;2.10;;
1545;SDS011;766;51.502;9.752;2023-09-18T13:17:55;6.25;;;1.90;;
1545;SDS011;766;51.502;9.752;2023-09-18T13:20:27;7.97;;;2.00;;
1545;SDS011;766;51.502;9.752;2023-09-18T13:22:57;5.88;;;1.85;;
1545;SDS011;766;51.502;9.752;2023-09-18T13:25:28;3.75;;;1.75;;
1545;SDS011;766;51.502;9.752;2023-09-18T13:27:58;4.30;;;1.92;;
1545;SDS011;766;51.502;9.752;2023-09-18T13:30:26;5.38;;;1.58;;
1545;SDS011;766;51.502;9.752;2023-09-18T13:33:01;4.18;;;1.92;;
1545;SDS011;766;51.502;9.752;2023-09-18T13:35:31;5.05;;;1.60;;
1545;SDS011;766;51.502;9.752;2023-09-18T13:38:00;7.53;;;2.08;;
1545;SDS011;766;51.502;9.752;2023-09-18T13:40:28;6.38;;;1.73;;
1545;SDS011;766;51.502;9.752;2023-09-18T13:42:57;3.92;;;1.88;;
1545;SDS011;766;51.502;9.752;2023-09-18T13:45:25;2.85;;;1.83;;
1545;SDS011;766;51.502;9.752;2023-09-18T13:47:53;5.32;;;1.90;;
1545;SDS011;766;51.502;9.752;2023-09-18T13:50:22;8.60;;;2.40;;
1545;SDS011;766;51.502;9.752;2023-09-18T13:52:52;4.07;;;1.75;;
1545;SDS011;766;51.502;9.752;2023-09-18T13:55:20;4.07;;;1.67;;
1545;SDS011;766;51.502;9.752;2023-09-18T13:57:48;4.95;;;1.88;;
1545;SDS011;766;51.502;9.752;2023-09-18T14:00:17;5.47;;;1.70;;
1545;SDS011;766;51.502;9.752;2023-09-18T14:02:45;2.97;;;1.77;;
1545;SDS011;766;51.502;9.752;2023-09-18T14:05:13;6.07;;;2.38;;
1545;SDS011;766;51.502;9.752;2023-09-18T14:07:44;4.72;;;1.92;;
1545;SDS011;766;51.502;9.752;2023-09-18T14:10:15;5.07;;;1.75;;
1545;SDS011;766;51.502;9.752;2023-09-18T14:12:48;6.03;;;2.13;;
1545;SDS011;766;51.502;9.752;2023-09-18T14:15:17;5.72;;;1.98;;
1545;SDS011;766;51.502;9.752;2023-09-18T14:17:45;2.80;;;1.73;;
1545;SDS011;766;51.502;9.752;2023-09-18T14:20:14;2.88;;;1.60;;
1545;SDS011;766;51.502;9.752;2023-09-18T14:22:45;8.88;;;1.98;;
1545;SDS011;766;51.502;9.752;2023-09-18T14:25:18;3.85;;;1.90;;
1545;SDS011;766;51.502;9.752;2023-09-18T14:27:48;6.20;;;2.08;;
1545;SDS011;766;51.502;9.752;2023-09-18T14:30:17;2.17;;;1.50;;
1545;SDS011;766;51.502;9.752;2023-09-18T14:32:45;3.90;;;2.08;;
1545;SDS011;766;51.502;9.752;2023-09-18T14:35:16;5.72;;;1.90;;
1545;SDS011;766;51.502;9.752;2023-09-18T14:37:47;8.07;;;2.10;;
1545;SDS011;766;51.502;9.752;2023-09-18T14:40:15;6.07;;;2.15;;
1545;SDS011;766;51.502;9.752;2023-09-18T14:42:45;7.03;;;1.90;;
1545;SDS011;766;51.502;9.752;2023-09-18T14:45:14;10.75;;;2.20;;
1545;SDS011;766;51.502;9.752;2023-09-18T14:47:42;6.95;;;1.80;;
1545;SDS011;766;51.502;9.752;2023-09-18T14:50:11;6.00;;;1.73;;
1545;SDS011;766;51.502;9.752;2023-09-18T14:52:39;4.50;;;1.77;;
1545;SDS011;766;51.502;9.752;2023-09-18T14:55:07;5.38;;;2.20;;
1545;SDS011;766;51.502;9.752;2023-09-18T14:57:39;6.18;;;2.03;;
1545;SDS011;766;51.502;9.752;2023-09-18T15:00:09;5.65;;;1.80;;
1545;SDS011;766;51.502;9.752;2023-09-18T15:02:39;5.25;;;2.05;;
1545;SDS011;766;51.502;9.752;2023-09-18T15:05:08;3.63;;;1.83;;
1545;SDS011;766;51.502;9.752;2023-09-18T15:07:39;5.20;;;1.80;;
1545;SDS011;766;51.502;9.752;2023-09-18T15:10:07;7.25;;;2.35;;
1545;SDS011;766;51.502;9.752;2023-09-18T15:12:37;4.90;;;1.80;;
1545;SDS011;766;51.502;9.752;2023-09-18T15:15:09;3.28;;;1.85;;
1545;SDS011;766;51.502;9.752;2023-09-18T15:17:37;5.68;;;2.05;;
1545;SDS011;766;51.502;9.752;2023-09-18T15:20:06;4.15;;;1.85;;
1545;SDS011;766;51.502;9.752;2023-09-18T15:22:38;4.82;;;1.80;;
1545;SDS011;766;51.502;9.752;2023-09-18T15:25:06;4.72;;;1.88;;
1545;SDS011;766;51.502;9.752;2023-09-18T15:27:35;5.68;;;1.90;;
1545;SDS011;766;51.502;9.752;2023-09-18T15:30:04;5.32;;;1.80;;
1545;SDS011;766;51.502;9.752;2023-09-18T15:32:45;4.95;;;2.10;;
1545;SDS011;766;51.502;9.752;2023-09-18T15:35:16;4.40;;;1.42;;
1545;SDS011;766;51.502;9.752;2023-09-18T15:37:44;4.72;;;1.85;;
1545;SDS011;766;51.502;9.752;2023-09-18T15:40:12;8.05;;;2.05;;
1545;SDS011;766;51.502;9.752;2023-09-18T15:42:42;4.28;;;1.58;;
1545;SDS011;766;51.502;9.752;2023-09-18T15:45:10;4.22;;;1.73;;
1545;SDS011;766;51.502;9.752;2023-09-18T15:47:40;5.05;;;1.80;;
1545;SDS011;766;51.502;9.752;2023-09-18T15:50:09;3.13;;;1.85;;
1545;SDS011;766;51.502;9.752;2023-09-18T15:52:37;4.47;;;1.77;;
1545;SDS011;766;51.502;9.752;2023-09-18T15:55:06;6.80;;;1.63;;